Time;durP1;ratioP1;P1;durP2;ratioP2;P2;SDS_P1;SDS_P2;PMS_P1;PMS_P2;Temp;Humidity;BMP_temperature;BMP_pressure;BME280_temperature;BME280_humidity;BME280_pressure;Samples;Min_cycle;Max_cycle;Signal;HPM_P1;HPM_P2
2021/05/28 00:01:57;;;;;;;15.40;6.03;;;8.10;99.90;;;9.17;99.93;101249.63;4937689;29;20086;-83
2021/05/28 00:04:23;;;;;;;8.52;5.47;;;8.10;99.90;;;9.14;100.00;101247.50;4938155;29;20038;-83
2021/05/28 00:06:49;;;;;;;9.52;5.68;;;8.10;99.90;;;9.16;100.00;101240.44;4937822;29;20039;-83
2021/05/28 00:09:15;;;;;;;8.23;6.00;;;8.00;99.90;;;9.19;100.00;101250.94;4936483;29;20030;-83
2021/05/28 00:11:41;;;;;;;10.98;5.93;;;8.10;99.90;;;9.21;100.00;101248.66;4936182;29;20054;-83
2021/05/28 00:14:08;;;;;;;10.82;5.93;;;8.10;99.90;;;9.25;100.00;101245.97;4936494;29;20028;-82
2021/05/28 00:16:34;;;;;;;10.45;6.57;;;8.10;99.90;;;9.32;100.00;101254.63;4936584;29;20074;-84
2021/05/28 00:19:00;;;;;;;13.23;6.90;;;8.20;99.90;;;9.40;100.00;101256.59;4936562;29;20035;-83
2021/05/28 00:21:26;;;;;;;12.65;7.00;;;8.20;99.90;;;9.48;100.00;101252.91;4946556;23;20070;-81
2021/05/28 00:23:52;;;;;;;14.98;7.53;;;8.30;99.90;;;9.58;100.00;101266.47;4900593;29;20031;-83
2021/05/28 00:26:18;;;;;;;8.70;5.57;;;8.40;99.90;;;9.63;100.00;101263.53;4900506;29;20040;-83
2021/05/28 00:28:48;;;;;;;12.73;7.50;;;8.40;99.90;;;9.70;100.00;101260.16;4916336;29;20040;-85
2021/05/28 00:31:16;;;;;;;14.05;6.68;;;8.50;99.90;;;9.76;100.00;101258.84;4900508;29;20318;-80
2021/05/28 00:33:43;;;;;;;14.85;6.80;;;8.50;99.90;;;9.78;100.00;101254.56;4899890;29;20040;-83
2021/05/28 00:36:09;;;;;;;18.40;6.55;;;8.60;99.90;;;9.81;100.00;101262.25;4900037;29;20041;-82
2021/05/28 00:38:35;;;;;;;9.82;6.38;;;8.60;99.90;;;9.84;100.00;101263.53;4901236;29;20029;-80
2021/05/28 00:41:02;;;;;;;17.77;6.90;;;8.60;99.90;;;9.86;100.00;101264.81;4899399;29;20109;-79
2021/05/28 00:43:28;;;;;;;8.68;6.30;;;8.60;99.90;;;9.88;100.00;101265.31;4899734;29;20127;-84
2021/05/28 00:45:55;;;;;;;13.60;6.28;;;8.70;99.90;;;9.90;100.00;101260.22;4900862;29;20044;-81
2021/05/28 00:48:21;;;;;;;17.60;7.22;;;8.70;99.90;;;9.93;100.00;101264.28;4899956;29;20088;-84
2021/05/28 00:50:47;;;;;;;11.55;6.28;;;8.70;99.90;;;9.98;100.00;101269.69;4899731;29;20088;-82
2021/05/28 00:53:14;;;;;;;12.25;6.53;;;8.70;99.90;;;10.00;100.00;101276.56;4899601;29;20032;-84
2021/05/28 00:55:40;;;;;;;14.48;6.65;;;8.80;99.90;;;10.01;100.00;101282.97;4900644;29;20504;-84
2021/05/28 00:58:07;;;;;;;10.90;5.70;;;8.80;99.90;;;10.02;100.00;101274.22;4914836;29;20088;-85
2021/05/28 01:00:34;;;;;;;15.52;6.90;;;8.80;99.90;;;10.06;100.00;101282.75;4900956;29;20107;-85
2021/05/28 01:03:00;;;;;;;13.82;6.50;;;8.80;99.90;;;10.06;100.00;101275.19;4899069;29;20025;-80
2021/05/28 01:05:27;;;;;;;11.60;5.65;;;8.80;99.90;;;10.07;100.00;101276.84;4899733;29;20024;-80
2021/05/28 01:07:54;;;;;;;13.95;5.85;;;8.80;99.90;;;10.06;100.00;101280.78;4898916;29;20037;-85
2021/05/28 01:10:21;;;;;;;12.00;6.68;;;8.80;99.90;;;10.07;100.00;101281.59;4912746;29;20111;-80
2021/05/28 01:12:47;;;;;;;12.50;5.80;;;8.80;99.90;;;10.09;100.00;101282.06;4919916;29;20024;-85
2021/05/28 01:15:14;;;;;;;12.45;6.25;;;8.80;99.90;;;10.09;100.00;101293.22;4920699;29;20484;-80
2021/05/28 01:17:40;;;;;;;9.60;5.90;;;8.80;99.90;;;10.08;100.00;101297.19;4935348;29;20052;-80
2021/05/28 01:20:09;;;;;;;10.52;6.25;;;8.80;99.90;;;10.10;100.00;101297.66;4921708;29;20036;-81
2021/05/28 01:22:38;;;;;;;9.98;6.55;;;8.80;99.90;;;10.10;100.00;101292.09;4918545;29;20047;-83
2021/05/28 01:25:05;;;;;;;14.20;6.30;;;8.90;99.90;;;10.10;100.00;101288.47;4917366;29;20171;-83
2021/05/28 01:27:31;;;;;;;10.43;5.82;;;8.90;99.90;;;10.10;100.00;101289.28;4933372;29;20028;-82
2021/05/28 01:29:57;;;;;;;8.27;5.93;;;8.90;99.90;;;10.10;100.00;101291.25;4932830;29;20499;-82
2021/05/28 01:32:23;;;;;;;10.77;6.20;;;8.90;99.90;;;10.11;100.00;101285.34;4917198;29;20136;-84
2021/05/28 01:34:50;;;;;;;9.18;5.85;;;8.80;99.90;;;10.12;100.00;101289.75;4917662;29;20036;-81
2021/05/28 01:37:16;;;;;;;12.88;5.95;;;8.90;99.90;;;10.11;100.00;101292.91;4916853;29;20032;-84
2021/05/28 01:39:50;;;;;;;10.68;5.55;;;8.80;99.90;;;10.08;100.00;101300.78;4932800;29;20500;-84
2021/05/28 01:42:17;;;;;;;13.52;6.30;;;8.80;99.90;;;10.05;100.00;101293.09;4932985;29;20036;-82
2021/05/28 01:44:53;;;;;;;16.92;7.03;;;8.80;99.90;;;10.04;100.00;101294.28;4933114;29;20064;-80
2021/05/28 01:47:19;;;;;;;16.15;7.55;;;8.80;99.90;;;10.04;100.00;101294.28;4917440;29;20036;-82
2021/05/28 01:49:45;;;;;;;12.52;6.65;;;8.80;99.90;;;10.01;100.00;101286.56;4933467;29;20484;-81
2021/05/28 01:52:14;;;;;;;15.38;6.85;;;8.80;99.90;;;9.99;100.00;101294.44;4916905;29;20060;-79
2021/05/28 01:54:40;;;;;;;9.85;6.38;;;8.80;99.90;;;10.01;100.00;101291.34;4932894;29;20127;-82
2021/05/28 01:57:12;;;;;;;17.45;8.30;;;8.80;99.90;;;10.05;100.00;101293.09;4933748;29;20059;-82
2021/05/28 01:59:39;;;;;;;13.40;6.18;;;8.80;99.90;;;10.09;100.00;101293.22;4919900;29;20032;-84
2021/05/28 02:02:06;;;;;;;14.05;6.68;;;8.80;99.90;;;10.12;100.00;101291.72;4933937;29;20080;-82
2021/05/28 02:04:33;;;;;;;11.55;6.22;;;8.80;99.90;;;10.10;100.00;101286.50;4935032;29;20056;-81
2021/05/28 02:07:00;;;;;;;13.73;6.43;;;8.90;99.90;;;10.02;99.98;101288.19;4935841;29;20282;-79
2021/05/28 02:09:26;;;;;;;11.20;6.35;;;8.80;99.90;;;9.88;100.00;101284.03;4928826;29;20055;-80
2021/05/28 02:11:51;;;;;;;10.10;6.20;;;8.70;99.90;;;9.74;100.00;101286.25;4900225;29;20149;-81
2021/05/28 02:14:17;;;;;;;10.73;6.55;;;8.50;99.90;;;9.60;100.00;101286.47;4901711;29;20076;-80
2021/05/28 02:16:44;;;;;;;9.75;6.22;;;8.40;99.90;;;9.48;100.00;101289.16;4901981;29;20108;-79
2021/05/28 02:19:10;;;;;;;11.63;6.03;;;8.30;99.90;;;9.33;99.95;101284.97;4897693;29;20047;-82
2021/05/28 02:21:37;;;;;;;11.80;7.45;;;8.20;99.90;;;9.28;100.00;101295.50;4897335;29;20068;-79
2021/05/28 02:24:05;;;;;;;16.80;6.75;;;8.20;99.90;;;9.21;100.00;101290.44;4896881;29;20031;-83
2021/05/28 02:26:31;;;;;;;14.25;7.65;;;8.10;99.90;;;9.12;99.93;101289.63;4898422;29;20077;-83
2021/05/28 02:28:57;;;;;;;9.95;7.00;;;8.00;99.90;;;9.11;100.00;101295.56;4899843;29;20032;-86
2021/05/28 02:31:23;;;;;;;8.18;6.20;;;7.90;99.90;;;9.08;100.00;101299.84;4897657;29;20036;-80
2021/05/28 02:33:48;;;;;;;13.07;6.95;;;7.90;99.90;;;9.11;100.00;101299.16;4897332;29;20140;-82
2021/05/28 02:36:14;;;;;;;16.92;8.27;;;8.00;99.90;;;9.13;100.00;101296.84;4897799;29;20115;-83
2021/05/28 02:38:41;;;;;;;11.85;7.57;;;8.00;99.90;;;9.17;100.00;101295.06;4897779;29;20472;-82
2021/05/28 02:41:07;;;;;;;11.57;6.68;;;8.00;99.90;;;9.18;100.00;101295.88;4898505;29;20036;-84
2021/05/28 02:43:34;;;;;;;10.25;6.63;;;8.00;99.90;;;9.18;100.00;101296.69;4898355;29;20032;-81
2021/05/28 02:46:00;;;;;;;12.73;7.30;;;8.10;99.90;;;9.19;100.00;101303.06;4900215;29;20049;-82
2021/05/28 02:48:26;;;;;;;15.10;7.05;;;8.00;99.90;;;9.21;100.00;101306.34;4898249;29;20469;-79
2021/05/28 02:50:52;;;;;;;14.50;7.72;;;8.00;99.90;;;9.23;100.00;101307.66;4898566;29;20058;-82
2021/05/28 02:53:19;;;;;;;13.88;7.28;;;8.00;99.90;;;9.22;100.00;101307.97;4898882;29;20103;-83
2021/05/28 02:55:45;;;;;;;13.15;7.43;;;8.10;99.90;;;9.19;100.00;101305.84;4898492;29;20104;-80
2021/05/28 02:58:11;;;;;;;12.50;6.93;;;8.00;99.90;;;9.13;100.00;101312.75;4897809;29;20024;-81
2021/05/28 03:00:38;;;;;;;17.63;8.20;;;8.00;99.90;;;9.08;100.00;101315.72;4899104;29;20037;-79
2021/05/28 03:03:05;;;;;;;14.80;8.10;;;7.90;99.90;;;8.97;100.00;101310.50;4899070;29;20052;-82
2021/05/28 03:05:31;;;;;;;15.10;7.20;;;7.80;99.90;;;8.92;100.00;101312.66;4898538;29;20028;-84
2021/05/28 03:07:56;;;;;;;11.95;7.65;;;7.80;99.90;;;8.80;100.00;101318.88;4902778;29;20040;-84
2021/05/28 03:10:24;;;;;;;12.27;6.97;;;7.70;99.90;;;8.75;100.00;101313.50;4915537;29;20032;-83
2021/05/28 03:12:49;;;;;;;16.55;8.32;;;7.60;99.90;;;8.70;100.00;101312.88;4915763;29;20096;-80
2021/05/28 03:15:16;;;;;;;11.15;7.55;;;7.60;99.90;;;8.62;100.00;101310.88;4915859;29;20045;-81
2021/05/28 03:17:44;;;;;;;18.60;8.95;;;7.50;99.90;;;8.53;100.00;101310.09;4906457;29;20088;-83
2021/05/28 03:20:22;;;;;;;18.65;9.70;;;7.40;99.90;;;8.55;100.00;101318.91;4902391;29;20024;-82
2021/05/28 03:22:49;;;;;;;20.23;10.07;;;7.40;99.90;;;8.55;100.00;101308.59;4898141;29;20043;-85
2021/05/28 03:25:16;;;;;;;16.73;9.98;;;7.40;99.90;;;8.51;100.00;101313.19;4897429;29;20025;-83
2021/05/28 03:27:44;;;;;;;19.98;8.93;;;7.40;99.90;;;8.46;100.00;101313.34;4903997;29;20035;-83
2021/05/28 03:30:12;;;;;;;17.08;9.15;;;7.40;99.90;;;8.38;100.00;101319.75;4900392;29;20032;-82
2021/05/28 03:32:38;;;;;;;14.20;9.10;;;7.30;99.90;;;8.31;100.00;101325.00;4903009;29;20096;-81
2021/05/28 03:35:07;;;;;;;12.73;8.25;;;7.20;99.90;;;8.30;100.00;101326.13;4900940;29;20458;-84
2021/05/28 03:37:33;;;;;;;18.33;9.07;;;7.20;99.90;;;8.24;100.00;101322.66;4902000;29;20033;-85
2021/05/28 03:40:01;;;;;;;15.10;8.65;;;7.10;99.90;;;8.18;100.00;101323.16;4917106;29;20078;-81
2021/05/28 03:42:28;;;;;;;17.90;9.57;;;7.10;99.90;;;8.10;100.00;101327.53;4919356;29;20438;-83
2021/05/28 03:44:53;;;;;;;14.10;7.97;;;7.00;99.90;;;8.08;100.00;101335.41;4902178;29;20450;-81
2021/05/28 03:47:20;;;;;;;13.93;9.05;;;7.00;99.90;;;8.07;100.00;101338.50;4901184;29;20036;-82
2021/05/28 03:49:46;;;;;;;12.02;8.52;;;7.00;99.90;;;8.08;100.00;101346.53;4903280;29;20199;-82
2021/05/28 03:52:13;;;;;;;16.90;9.40;;;7.00;99.90;;;8.09;100.00;101339.81;4901843;29;20032;-83
2021/05/28 03:54:39;;;;;;;11.88;8.85;;;7.00;99.90;;;8.09;100.00;101342.59;4902419;29;20032;-83
2021/05/28 03:57:06;;;;;;;15.55;9.43;;;7.00;99.90;;;8.11;100.00;101342.28;4902541;29;20393;-83
2021/05/28 03:59:34;;;;;;;12.65;8.65;;;7.00;99.90;;;8.12;100.00;101341.16;4903251;29;20071;-82
2021/05/28 04:02:01;;;;;;;15.35;8.77;;;7.00;99.90;;;8.10;100.00;101335.06;4902142;29;20032;-81
2021/05/28 04:04:26;;;;;;;15.23;8.85;;;7.00;99.90;;;8.12;100.00;101346.72;4901831;29;20029;-81
2021/05/28 04:06:52;;;;;;;13.35;10.25;;;7.00;99.90;;;8.15;100.00;101346.06;4903219;29;20043;-82
2021/05/28 04:09:19;;;;;;;16.17;10.05;;;7.00;99.90;;;8.17;100.00;101343.75;4905935;29;20059;-83
2021/05/28 04:11:45;;;;;;;19.75;12.55;;;7.00;99.90;;;8.19;100.00;101347.03;4922902;29;20039;-81
2021/05/28 04:14:11;;;;;;;21.13;11.00;;;7.10;99.90;;;8.24;100.00;101358.03;4921588;29;20036;-82
2021/05/28 04:16:37;;;;;;;21.58;11.95;;;7.10;99.90;;;8.27;100.00;101362.94;4921164;29;20032;-84
2021/05/28 04:19:03;;;;;;;20.75;12.40;;;7.20;99.90;;;8.32;100.00;101368.34;4920542;29;20035;-81
2021/05/28 04:21:29;;;;;;;22.30;14.20;;;7.20;99.90;;;8.37;100.00;101371.81;4920160;29;20143;-83
2021/05/28 04:23:55;;;;;;;25.48;14.40;;;7.20;99.90;;;8.43;100.00;101373.31;4921972;29;20059;-81
2021/05/28 04:26:58;;;;;;;22.92;14.35;;;7.30;99.90;;;8.54;100.00;101386.91;4923333;29;20485;-85
2021/05/28 04:29:24;;;;;;;29.58;15.50;;;7.40;99.90;;;8.73;100.00;101384.63;4920299;29;20084;-82
2021/05/28 04:31:53;;;;;;;26.10;14.77;;;7.50;99.90;;;8.89;100.00;101385.75;4922085;29;20032;-83
2021/05/28 04:34:18;;;;;;;25.35;16.58;;;7.70;99.90;;;8.93;100.00;101381.97;4921013;29;20043;-83
2021/05/28 04:36:44;;;;;;;24.70;15.40;;;7.80;99.90;;;9.08;100.00;101390.97;4921786;29;20044;-81
2021/05/28 04:39:10;;;;;;;25.30;15.38;;;7.90;99.90;;;9.23;100.00;101393.22;4919264;29;20449;-82
2021/05/28 04:41:36;;;;;;;22.67;15.15;;;8.00;99.90;;;9.36;100.00;101387.47;4921663;29;20036;-82
2021/05/28 04:44:03;;;;;;;23.25;13.10;;;8.10;99.90;;;9.52;100.00;101396.94;4921045;29;20119;-82
2021/05/28 04:46:29;;;;;;;19.20;13.50;;;8.20;99.90;;;9.70;100.00;101405.22;4922435;29;20123;-83
2021/05/28 04:48:55;;;;;;;22.50;13.70;;;8.30;99.90;;;9.86;100.00;101403.50;4921019;29;20123;-84
2021/05/28 04:51:21;;;;;;;18.20;12.98;;;8.50;99.90;;;10.08;100.00;101406.84;4922677;29;20107;-81
2021/05/28 04:53:48;;;;;;;17.73;12.32;;;8.60;99.90;;;10.29;100.00;101404.16;4920516;29;20119;-82
2021/05/28 04:56:15;;;;;;;23.98;13.50;;;8.80;99.90;;;10.43;100.00;101401.13;4921769;29;20036;-84
2021/05/28 04:58:41;;;;;;;15.80;11.23;;;9.00;99.90;;;10.57;100.00;101412.81;4921710;29;20066;-82
2021/05/28 05:01:08;;;;;;;18.35;11.23;;;9.10;99.90;;;10.63;100.00;101413.47;4921199;29;20441;-83
2021/05/28 05:03:33;;;;;;;17.17;10.60;;;9.10;99.90;;;10.69;100.00;101406.50;4921810;29;20119;-83
2021/05/28 05:05:59;;;;;;;18.85;11.35;;;9.20;99.90;;;10.74;99.83;101407.13;4921932;29;20111;-84
2021/05/28 05:08:26;;;;;;;17.10;9.63;;;9.20;99.90;;;10.65;99.47;101399.97;4921914;29;20095;-84
2021/05/28 05:10:51;;;;;;;15.95;9.45;;;9.20;99.90;;;10.54;99.55;101411.53;4906379;29;20036;-84
2021/05/28 05:13:17;;;;;;;14.27;8.65;;;9.10;99.90;;;10.51;99.59;101405.81;4902273;29;20031;-83
2021/05/28 05:15:43;;;;;;;15.50;9.30;;;9.10;99.90;;;10.62;99.61;101415.44;4900977;29;20032;-83
2021/05/28 05:18:09;;;;;;;12.88;9.82;;;9.20;99.90;;;10.81;99.47;101418.56;4902663;29;20326;-82
2021/05/28 05:20:37;;;;;;;19.23;10.65;;;9.30;99.90;;;11.23;99.62;101427.72;4902291;29;20122;-82
2021/05/28 05:23:04;;;;;;;16.67;10.15;;;9.60;99.90;;;11.52;98.63;101427.59;4903917;29;20105;-81
2021/05/28 05:25:31;;;;;;;20.50;9.90;;;9.80;99.90;;;11.67;97.53;101428.06;4902959;29;20051;-82
2021/05/28 05:27:57;;;;;;;13.82;8.40;;;10.00;99.90;;;11.77;96.82;101431.28;4902317;29;20047;-83
2021/05/28 05:30:23;;;;;;;13.15;8.32;;;10.10;99.90;;;11.63;95.40;101430.75;4903840;29;20544;-82
2021/05/28 05:32:49;;;;;;;16.42;8.52;;;10.00;99.90;;;11.79;95.74;101426.16;4903730;29;20033;-81
2021/05/28 05:35:17;;;;;;;13.85;8.43;;;10.20;99.90;;;11.98;95.19;101429.19;4902853;29;20520;-82
2021/05/28 05:37:43;;;;;;;13.77;7.63;;;10.40;99.90;;;11.98;94.50;101442.38;4903201;29;20123;-81
2021/05/28 05:40:10;;;;;;;8.60;7.05;;;10.40;99.90;;;12.00;93.88;101449.28;4903583;29;20031;-83
2021/05/28 05:42:40;;;;;;;15.80;7.97;;;10.40;99.90;;;11.92;93.34;101450.19;4903009;29;20129;-82
2021/05/28 05:45:11;;;;;;;15.10;8.00;;;10.40;99.90;;;11.84;92.96;101445.53;4903628;29;20032;-83
2021/05/28 05:47:43;;;;;;;10.60;8.23;;;10.30;99.90;;;11.83;93.11;101448.66;4904579;29;20055;-80
2021/05/28 05:50:12;;;;;;;12.75;10.50;;;10.30;99.90;;;11.91;92.65;101456.94;4903253;29;20037;-83
2021/05/28 05:52:38;;;;;;;18.52;10.77;;;10.40;99.90;;;12.29;91.86;101448.25;4903165;29;20029;-80
2021/05/28 05:55:06;;;;;;;16.48;9.55;;;10.60;99.90;;;12.47;90.41;101444.03;4903201;29;20037;-80
2021/05/28 05:57:31;;;;;;;20.63;11.18;;;10.80;99.90;;;12.60;89.76;101445.66;4902670;29;20127;-80
2021/05/28 05:59:58;;;;;;;16.98;10.43;;;10.90;99.90;;;12.71;89.64;101445.97;4902472;29;20120;-84
2021/05/28 06:02:23;;;;;;;13.93;10.95;;;11.00;99.90;;;13.14;88.98;101436.88;4908711;29;20029;-78
2021/05/28 06:04:49;;;;;;;19.95;12.18;;;11.40;99.90;;;13.94;86.47;101436.66;4921848;29;20088;-78
2021/05/28 06:07:15;;;;;;;18.95;11.40;;;12.00;99.90;;;14.51;83.34;101447.38;4907391;29;20449;-83
2021/05/28 06:09:41;;;;;;;18.75;11.77;;;12.50;99.90;;;14.81;79.49;101448.47;4903995;29;20066;-83
2021/05/28 06:12:08;;;;;;;13.80;8.60;;;12.90;99.90;;;14.86;77.15;101456.63;4905457;29;20092;-84
2021/05/28 06:14:34;;;;;;;20.30;10.60;;;13.10;99.90;;;14.49;76.76;101458.16;4904586;29;20145;-79
2021/05/28 06:17:00;;;;;;;25.90;11.73;;;12.90;99.90;;;13.68;77.33;101459.66;4904514;29;20059;-79
2021/05/28 06:19:26;;;;;;;23.92;13.60;;;12.40;99.90;;;13.02;80.66;101462.13;4905042;29;20496;-81
2021/05/28 06:21:53;;;;;;;24.77;14.07;;;11.80;99.90;;;12.67;82.12;101470.28;4904000;29;20036;-84
2021/05/28 06:24:20;;;;;;;20.67;13.65;;;11.40;99.90;;;12.39;84.19;101473.00;4904437;29;20028;-84
2021/05/28 06:26:46;;;;;;;20.60;14.20;;;11.10;99.90;;;12.44;85.39;101457.91;4904844;29;20064;-83
2021/05/28 06:29:12;;;;;;;22.00;14.13;;;11.10;99.90;;;13.08;86.39;101461.56;4904283;29;20028;-83
2021/05/28 06:31:38;;;;;;;19.73;13.48;;;11.60;99.90;;;14.13;83.10;101468.47;4919692;29;20142;-82
2021/05/28 06:34:04;;;;;;;24.83;15.63;;;12.30;99.90;;;14.47;79.06;101483.81;4902759;29;20075;-83
2021/05/28 06:36:31;;;;;;;25.17;15.05;;;12.60;99.90;;;14.17;78.53;101474.19;4903359;29;20038;-83
2021/05/28 06:38:57;;;;;;;25.55;14.77;;;12.50;99.90;;;13.77;79.50;101476.34;4904057;29;20021;-82
2021/05/28 06:41:23;;;;;;;21.42;14.57;;;12.30;99.90;;;13.30;79.87;101484.63;4903053;29;20035;-83
2021/05/28 06:43:49;;;;;;;22.42;14.13;;;12.00;99.90;;;12.88;81.20;101475.72;4900612;29;20084;-79
2021/05/28 06:46:17;;;;;;;21.65;14.95;;;11.60;99.90;;;13.23;82.48;101481.63;4903085;29;20048;-82
2021/05/28 06:48:44;;;;;;;21.50;13.30;;;11.70;99.90;;;14.08;81.05;101481.97;4904548;29;20080;-84
2021/05/28 06:51:11;;;;;;;20.60;12.77;;;12.40;99.90;;;15.05;75.79;101481.16;4899676;29;20039;-83
2021/05/28 06:53:37;;;;;;;23.13;13.95;;;13.10;99.90;;;15.29;71.25;101480.84;4900531;29;20037;-83
2021/05/28 06:56:05;;;;;;;21.48;11.73;;;13.50;99.90;;;16.03;72.25;101478.72;4902082;29;20032;-81
2021/05/28 06:58:31;;;;;;;23.00;13.40;;;14.10;99.90;;;15.99;71.79;101475.81;4899916;29;20024;-80
2021/05/28 07:00:57;;;;;;;17.23;11.23;;;14.30;99.90;;;15.91;71.73;101490.16;4901180;29;20028;-82
2021/05/28 07:03:23;;;;;;;18.05;12.15;;;14.20;99.90;;;15.21;71.69;101490.34;4899190;29;20036;-82
2021/05/28 07:05:50;;;;;;;18.42;12.18;;;13.70;99.90;;;14.82;74.51;101491.47;4898894;29;20444;-84
2021/05/28 07:08:16;;;;;;;17.35;11.55;;;13.40;99.90;;;14.80;74.29;101493.84;4898902;29;20040;-79
2021/05/28 07:10:42;;;;;;;16.05;10.13;;;13.30;99.90;;;14.78;74.13;101499.81;4912370;29;20024;-81
2021/05/28 07:13:09;;;;;;;20.98;11.52;;;13.20;99.90;;;14.48;74.75;101504.31;4903695;29;20036;-83
2021/05/28 07:15:37;;;;;;;14.23;10.07;;;13.00;99.90;;;14.25;76.44;101504.13;4897333;29;20033;-84
2021/05/28 07:18:06;;;;;;;19.65;11.80;;;12.80;99.90;;;14.19;76.24;101517.59;4898857;29;20040;-83
2021/05/28 07:20:32;;;;;;;21.25;11.50;;;12.70;99.90;;;14.08;76.24;101510.91;4898411;29;20032;-84
2021/05/28 07:22:58;;;;;;;22.48;12.88;;;12.60;99.90;;;13.85;78.48;101521.09;4900141;29;20238;-83
2021/05/28 07:25:25;;;;;;;17.10;10.55;;;12.40;99.90;;;13.89;78.60;101516.41;4901311;29;20035;-82
2021/05/28 07:27:51;;;;;;;17.73;10.95;;;12.40;99.90;;;14.15;78.39;101516.72;4900601;29;20198;-82
2021/05/28 07:30:18;;;;;;;16.63;11.60;;;12.50;99.90;;;14.38;77.17;101527.34;4900056;29;20532;-83
2021/05/28 07:32:44;;;;;;;17.58;11.65;;;12.70;99.90;;;14.18;76.77;101521.59;4900480;29;20045;-84
2021/05/28 07:35:11;;;;;;;18.30;12.82;;;12.70;99.90;;;14.21;76.87;101523.69;4900641;29;20043;-79
2021/05/28 07:37:38;;;;;;;21.42;12.27;;;12.70;99.90;;;14.18;75.07;101529.22;4899584;29;20123;-80
2021/05/28 07:40:08;;;;;;;20.48;10.90;;;12.60;99.90;;;14.25;75.77;101527.38;4899506;29;20570;-82
2021/05/28 07:42:34;;;;;;;20.70;11.25;;;12.70;99.90;;;14.36;75.52;101532.50;4899868;29;20032;-81
2021/05/28 07:45:00;;;;;;;18.35;11.77;;;12.70;99.90;;;14.22;74.43;101532.94;4901114;29;20442;-83
2021/05/28 07:47:27;;;;;;;21.10;11.57;;;12.70;99.90;;;14.29;73.87;101543.56;4898856;29;20028;-82
2021/05/28 07:49:53;;;;;;;19.25;12.23;;;12.70;99.90;;;14.23;74.00;101537.34;4900681;29;20029;-80
2021/05/28 07:52:19;;;;;;;17.27;11.60;;;12.60;99.90;;;14.40;74.61;101533.41;4900387;29;20029;-85
2021/05/28 07:54:45;;;;;;;16.23;11.48;;;12.70;99.90;;;14.49;74.06;101529.25;4901417;29;20445;-81
2021/05/28 07:57:11;;;;;;;16.33;10.90;;;12.80;99.90;;;15.38;70.45;101536.94;4901211;29;20040;-84
2021/05/28 07:59:37;;;;;;;16.10;10.70;;;13.40;99.90;;;16.56;65.02;101536.06;4901599;29;20036;-84
2021/05/28 08:02:04;;;;;;;15.32;9.52;;;14.30;99.90;;;17.71;60.21;101529.69;4908530;29;20049;-84
2021/05/28 08:04:33;;;;;;;13.68;9.73;;;15.30;99.90;;;18.30;56.43;101521.00;4900448;29;20500;-84
2021/05/28 08:06:59;;;;;;;12.48;9.10;;;16.00;99.90;;;18.57;55.94;101518.88;4901601;29;20051;-81
2021/05/28 08:09:25;;;;;;;14.73;9.00;;;16.60;99.90;;;19.57;55.11;101526.81;4899709;29;20455;-82
2021/05/28 08:11:50;;;;;;;15.60;8.73;;;17.30;99.90;;;20.21;54.33;101527.78;4923176;29;20051;-81
2021/05/28 08:14:16;;;;;;;12.40;8.07;;;17.70;99.90;;;20.56;51.81;101540.41;4923512;29;20055;-80
2021/05/28 08:16:42;;;;;;;13.50;9.43;;;18.10;99.90;;;19.73;54.56;101527.28;4923903;29;20036;-83
2021/05/28 08:19:08;;;;;;;17.98;10.27;;;17.70;99.90;;;19.84;54.72;101528.09;4939301;29;20043;-83
2021/05/28 08:21:34;;;;;;;16.92;11.07;;;17.60;99.90;;;19.31;54.22;101529.88;4940711;29;20068;-81
2021/05/28 08:24:00;;;;;;;15.55;9.80;;;17.30;99.90;;;18.59;57.25;101533.41;4939101;29;20024;-83
2021/05/28 08:26:26;;;;;;;16.73;10.85;;;16.70;99.90;;;18.02;57.57;101534.88;4938715;29;20043;-78
2021/05/28 08:28:51;;;;;;;25.30;13.05;;;16.30;99.90;;;18.14;56.52;101536.63;4905310;29;20197;-84
2021/05/28 08:31:20;;;;;;;19.88;11.98;;;16.40;99.90;;;18.54;54.69;101519.66;4905099;29;20039;-81
2021/05/28 08:33:46;;;;;;;14.65;9.65;;;16.70;99.90;;;19.22;55.27;101538.75;4903280;29;20062;-82
2021/05/28 08:36:12;;;;;;;16.30;10.25;;;17.00;99.90;;;19.70;53.85;101530.91;4915777;29;20092;-82
2021/05/28 08:38:38;;;;;;;15.73;8.75;;;17.50;99.90;;;20.73;52.44;101533.94;4919356;29;20068;-81
2021/05/28 08:41:06;;;;;;;16.92;9.88;;;18.00;99.90;;;21.03;51.31;101526.59;4918516;29;20032;-82
2021/05/28 08:43:32;;;;;;;17.02;10.40;;;18.30;99.90;;;21.40;50.26;101525.31;4899196;29;20041;-83
2021/05/28 08:46:01;;;;;;;15.23;10.00;;;18.60;99.90;;;21.39;49.92;101526.53;4901721;29;20180;-82
2021/05/28 08:48:28;;;;;;;16.23;10.13;;;18.80;99.90;;;21.30;50.46;101526.16;4903280;29;20025;-83
2021/05/28 08:50:54;;;;;;;18.65;10.70;;;18.80;99.90;;;21.81;49.54;101525.53;4900861;29;20070;-81
2021/05/28 08:53:19;;;;;;;18.55;10.43;;;19.00;99.90;;;22.16;47.40;101525.38;4903143;29;20036;-82
2021/05/28 08:55:46;;;;;;;17.83;10.23;;;19.30;99.90;;;22.05;46.87;101533.16;4902156;29;20047;-81
2021/05/28 08:58:16;;;;;;;17.40;10.77;;;19.40;99.90;;;21.65;45.03;101531.72;4903493;29;20032;-83
2021/05/28 09:00:47;;;;;;;18.40;11.27;;;19.20;95.60;;;21.28;46.33;101523.75;4904486;29;20407;-81
2021/05/28 09:03:43;;;;;;;16.40;10.25;;;19.00;97.80;;;21.68;45.49;101528.03;4904307;29;20040;-81
2021/05/28 09:06:19;;;;;;;19.48;11.25;;;19.00;98.30;;;22.12;44.30;101516.06;4906245;29;20145;-82
2021/05/28 09:08:46;;;;;;;18.75;10.38;;;19.30;97.10;;;21.83;45.02;101521.06;4905915;29;20507;-84
2021/05/28 09:11:17;;;;;;;20.13;9.95;;;19.30;96.20;;;21.75;44.49;101521.50;4904589;29;20085;-83
2021/05/28 09:13:50;;;;;;;18.58;10.52;;;19.20;94.00;;;21.18;47.08;101524.56;4904336;29;20036;-81
2021/05/28 09:16:26;;;;;;;19.58;11.43;;;19.20;98.10;;;20.56;47.36;101523.38;4904291;29;20109;-83
2021/05/28 09:18:59;;;;;;;20.98;11.60;;;19.00;96.90;;;20.89;49.00;101515.28;4902632;29;20036;-85
2021/05/28 09:21:35;;;;;;;19.25;10.45;;;18.90;99.90;;;20.88;47.29;101519.31;4901134;29;20042;-82
2021/05/28 09:24:06;;;;;;;18.98;11.38;;;18.70;99.90;;;21.53;46.77;101518.78;4902359;29;20056;-79
2021/05/28 09:26:36;;;;;;;20.38;10.75;;;19.00;99.90;;;21.74;45.67;101519.88;4901758;29;20024;-81
2021/05/28 09:29:05;;;;;;;11.25;7.70;;;19.20;97.80;;;22.04;43.82;101520.16;4900823;29;20556;-80
2021/05/28 09:31:34;;;;;;;13.23;7.70;;;19.40;93.00;;;21.76;45.41;101515.41;4901219;29;20032;-83
2021/05/28 09:34:00;;;;;;;16.25;8.88;;;19.40;95.30;;;21.69;44.93;101520.31;4917197;29;20040;-79
2021/05/28 09:36:33;;;;;;;13.57;7.88;;;19.50;91.30;;;22.48;43.84;101517.41;4900056;29;20032;-84
2021/05/28 09:39:11;;;;;;;16.23;9.00;;;19.90;92.90;;;22.74;43.64;101513.16;4901889;29;20183;-83
2021/05/28 09:41:55;;;;;;;16.73;10.40;;;20.20;90.70;;;22.04;43.36;101509.59;4903490;29;20486;-83
2021/05/28 09:44:22;;;;;;;17.13;8.38;;;20.00;87.00;;;21.73;46.10;101507.72;4903532;29;20021;-83
2021/05/28 09:47:17;;;;;;;16.55;9.25;;;19.90;93.40;;;22.19;44.79;101509.47;4903891;29;20041;-84
2021/05/28 09:49:54;;;;;;;13.65;7.40;;;20.10;92.80;;;22.04;42.30;101501.06;4918204;29;20043;-83
2021/05/28 09:52:28;;;;;;;14.00;6.10;;;20.00;79.20;;;22.46;39.87;101499.94;4909073;29;20028;-83
2021/05/28 09:55:15;;;;;;;8.30;5.22;;;20.20;72.40;;;22.54;38.61;101510.03;4922726;29;20071;-85
2021/05/28 09:57:58;;;;;;;9.32;5.38;;;20.20;69.20;;;23.04;38.65;101499.03;4920229;29;20083;-80
2021/05/28 10:00:59;;;;;;;11.07;6.05;;;20.50;71.70;;;23.24;39.66;101499.22;4935156;29;20028;-84
2021/05/28 10:04:01;;;;;;;13.13;6.70;;;20.60;73.00;;;22.64;37.56;101496.94;4916642;29;20087;-80
2021/05/28 10:06:36;;;;;;;10.82;5.40;;;20.50;65.10;;;23.13;37.86;101495.66;4920983;29;20050;-81
2021/05/28 10:09:14;;;;;;;10.55;4.60;;;20.70;65.90;;;22.36;37.38;101497.16;4935633;29;20162;-82